createdAt,value
2023-01-17T00:00:32.895Z,4.50
2023-01-17T00:03:00.190Z,3.75
2023-01-17T00:05:46.111Z,3.47
2023-01-17T00:08:45.833Z,4.00
2023-01-17T00:11:13.023Z,3.92
2023-01-17T00:13:40.214Z,4.10
2023-01-17T00:16:07.559Z,3.85
2023-01-17T00:18:34.847Z,3.95
2023-01-17T00:21:21.033Z,4.78
2023-01-17T00:24:07.110Z,4.72
2023-01-17T00:26:34.422Z,4.03
2023-01-17T00:29:02.268Z,4.43
2023-01-17T00:31:29.557Z,4.63
2023-01-17T00:33:56.675Z,4.18
2023-01-17T00:36:23.847Z,5.18
2023-01-17T00:38:51.002Z,4.70
2023-01-17T00:41:18.183Z,5.53
2023-01-17T00:44:04.226Z,5.40
2023-01-17T00:46:50.343Z,5.53
2023-01-17T00:49:36.382Z,5.85
2023-01-17T00:52:22.610Z,6.50
2023-01-17T00:55:08.537Z,6.63
2023-01-17T00:57:54.663Z,6.95
2023-01-17T01:00:40.908Z,7.30
2023-01-17T01:03:26.960Z,6.85
2023-01-17T01:06:13.176Z,7.63
2023-01-17T01:08:59.318Z,7.93
2023-01-17T01:11:45.307Z,6.35
2023-01-17T01:14:31.393Z,7.03
2023-01-17T01:17:17.529Z,6.13
2023-01-17T01:20:03.570Z,6.78
2023-01-17T01:22:49.521Z,6.57
2023-01-17T01:25:35.436Z,5.70
2023-01-17T01:28:21.494Z,4.75
2023-01-17T01:31:07.740Z,3.95
2023-01-17T01:33:35.361Z,4.00
2023-01-17T01:36:02.558Z,3.95
2023-01-17T01:38:29.806Z,3.85
2023-01-17T01:40:57.058Z,4.13
2023-01-17T02:39:52.645Z,3.50
2023-01-17T02:42:19.879Z,3.33
2023-01-17T02:44:47.054Z,3.22
2023-01-17T02:47:14.365Z,3.55
2023-01-17T02:49:41.530Z,3.55
2023-01-17T02:52:08.931Z,3.42
2023-01-17T02:54:36.138Z,2.90
2023-01-17T02:57:03.472Z,3.53
2023-01-17T02:59:30.604Z,3.67
2023-01-17T03:01:57.980Z,3.38
2023-01-17T03:04:25.364Z,3.20
2023-01-17T03:06:52.582Z,3.45
2023-01-17T03:09:19.799Z,3.13
2023-01-17T03:11:47.051Z,3.30
2023-01-17T03:14:14.233Z,2.95
2023-01-17T03:16:41.535Z,2.97
2023-01-17T03:19:09.889Z,3.55
2023-01-17T03:21:37.144Z,3.03
2023-01-17T03:24:04.345Z,3.05
2023-01-17T03:26:31.813Z,3.10
2023-01-17T03:28:58.983Z,2.67
2023-01-17T03:31:26.182Z,3.28
2023-01-17T03:33:53.400Z,3.30
2023-01-17T03:36:20.671Z,3.70
2023-01-17T03:38:47.856Z,2.97
2023-01-17T03:41:15.129Z,2.90
2023-01-17T03:43:42.313Z,3.17
2023-01-17T03:46:09.643Z,2.97
2023-01-17T03:48:36.850Z,3.33
2023-01-17T03:51:04.051Z,2.70
2023-01-17T03:53:31.253Z,2.78
2023-01-17T03:56:00.182Z,3.70
2023-01-17T03:58:27.415Z,3.30
2023-01-17T04:00:54.807Z,2.78
2023-01-17T04:03:22.399Z,3.00
2023-01-17T04:05:49.573Z,2.85
2023-01-17T04:08:16.889Z,2.92
2023-01-17T04:10:44.130Z,3.15
2023-01-17T04:13:11.306Z,2.83
2023-01-17T04:15:38.626Z,2.58
2023-01-17T04:18:05.798Z,2.55
2023-01-17T04:20:33.159Z,3.00
2023-01-17T04:23:00.382Z,2.90
2023-01-17T04:25:29.923Z,2.17
2023-01-17T04:27:57.122Z,2.80
2023-01-17T04:30:24.349Z,2.30
2023-01-17T04:32:51.570Z,2.83
2023-01-17T04:35:18.817Z,2.20
2023-01-17T04:37:45.969Z,2.60
2023-01-17T04:40:13.176Z,2.70
2023-01-17T04:42:40.506Z,2.92
2023-01-17T04:45:07.764Z,2.50
2023-01-17T04:47:35.027Z,2.90
2023-01-17T04:50:02.278Z,2.47
2023-01-17T04:52:29.509Z,2.65
2023-01-17T04:54:56.745Z,2.35
2023-01-17T04:57:25.148Z,3.10
2023-01-17T04:59:53.636Z,2.50
2023-01-17T05:02:20.910Z,2.58
2023-01-17T05:04:48.189Z,2.63
2023-01-17T05:07:15.379Z,2.03
2023-01-17T05:09:43.905Z,1.88
2023-01-17T05:12:11.093Z,2.70
